Portada
METAR-TAF:

METAR-TAF

Aeroports :

Hambantota, Sri Lanka

latitud: 06-17-20N, longitud: 81-07-25E, altitud: 48 m

Observació

L'informe es va fer fa 1 hora i 48 minuts, a les 15:10 UTC
Vent 3 kt del Oest/Sud-Oest, variant entre Sud-Oest i Oest
Temperatura 28°C
Humitat 74%
Pressió 1008 hPa
Visibilitat 10 km o més
Escasses núvols a una alçada de 1800 ft

METAR: VCRI 251510Z 25003KT 220V280 9999 FEW018 28/23 Q1008 NOSIG

Hora: 22:28 (16:58 UTC)

Pronòstic

L'informe es va fer fa 11 hores i 58 minuts, a les 05:00 UTC
Pronòstic vàlid del 25 a les 06 UTC al 26 a les 12 UTC
Vent 12 kt del Oest/Sud-Oest amb ràfegues de 25 kt
Visibilitat 10 km o més
Escasses núvols a una alçada de 1800 ft
Evolucionant progressivament
l' 25 a les 16 UTC al 25 a les 18 UTC
Vent 8 kt del Sud-Oest

TAF: VCRI 250500Z 2506/2612 24012G25KT 9999 FEW018 TX35/2508Z TN26/2600Z BECMG 2516/2518 23008KT

Observacions i pronòstics meteorològics de més de 4000 aeroports (METAR i TAF).

Les estacions disponibles són els punts grocs i vermells al mapa.

Posi el ratolí al punt desitjat per veure el nom de l'estació.

Feu clic per veure les observacions i els pronòstics meteorològics.

Per canviar el mapa: feu clic els botons verds amb una creu de color negre per apropar; al botó verd amb un guió per allunyar la imatge; o en les fletxes verdes per a mapes adjacents.


METAR-TAF: